createdAt,value
2023-02-24T00:01:13.185Z,7.35
2023-02-24T00:03:39.600Z,7.50
2023-02-24T00:06:11.860Z,7.63
2023-02-24T00:08:39.898Z,7.69
2023-02-24T00:11:14.393Z,7.82
2023-02-24T00:13:41.481Z,7.81
2023-02-24T00:16:08.063Z,7.83
2023-02-24T00:18:34.986Z,7.88
2023-02-24T00:21:11.063Z,7.63
2023-02-24T00:23:38.313Z,7.90
2023-02-24T00:26:06.726Z,7.91
2023-02-24T00:28:34.393Z,7.93
2023-02-24T00:31:16.268Z,8.01
2023-02-24T00:33:43.793Z,7.98
2023-02-24T00:36:17.053Z,8.08
2023-02-24T00:38:46.927Z,7.97
2023-02-24T00:41:22.416Z,8.04
2023-02-24T00:43:49.887Z,7.81
2023-02-24T00:46:17.705Z,8.00
2023-02-24T00:48:45.945Z,7.99
2023-02-24T00:51:14.447Z,7.95
2023-02-24T00:53:40.898Z,7.97
2023-02-24T00:56:13.782Z,8.10
2023-02-24T00:58:40.582Z,8.18
2023-02-24T01:01:23.771Z,8.16
2023-02-24T01:03:51.667Z,8.37
2023-02-24T01:06:21.919Z,8.15
2023-02-24T01:08:49.897Z,8.29
2023-02-24T01:11:41.266Z,8.21
2023-02-24T01:14:15.886Z,8.19
2023-02-24T01:16:45.026Z,8.15
2023-02-24T01:19:12.506Z,8.24
2023-02-24T01:21:38.990Z,8.11
2023-02-24T01:24:05.773Z,8.17
2023-02-24T01:26:32.398Z,8.22
2023-02-24T01:28:58.861Z,8.02
2023-02-24T01:31:25.752Z,8.11
2023-02-24T01:33:52.401Z,8.08
2023-02-24T01:36:21.989Z,8.31
2023-02-24T01:38:49.184Z,8.27
2023-02-24T01:41:18.899Z,8.23
2023-02-24T01:44:15.032Z,8.29
2023-02-24T01:46:43.977Z,8.31
2023-02-24T01:49:25.037Z,8.30
2023-02-24T01:52:02.083Z,8.19
2023-02-24T01:54:34.088Z,8.06
2023-02-24T01:57:01.823Z,8.00
2023-02-24T01:59:29.764Z,8.05
2023-02-24T02:02:04.261Z,8.06
2023-02-24T02:04:38.321Z,7.89
2023-02-24T02:07:05.101Z,7.91
2023-02-24T02:09:32.790Z,7.89
2023-02-24T02:11:59.175Z,7.99
2023-02-24T02:14:27.036Z,7.94
2023-02-24T02:17:12.148Z,7.92
2023-02-24T02:20:15.739Z,7.64
2023-02-24T02:23:09.794Z,7.67
2023-02-24T02:26:10.788Z,7.79
2023-02-24T02:29:01.956Z,7.85
2023-02-24T02:31:32.476Z,7.78
2023-02-24T02:34:05.735Z,7.72
2023-02-24T02:36:48.840Z,7.69
2023-02-24T02:39:33.747Z,7.75
2023-02-24T02:42:30.140Z,7.84
2023-02-24T02:45:05.318Z,7.72
2023-02-24T02:47:41.231Z,7.63
2023-02-24T02:50:13.134Z,7.65
2023-02-24T02:52:48.322Z,7.57
2023-02-24T02:55:23.843Z,7.53
2023-02-24T02:57:53.624Z,7.66
2023-02-24T03:00:23.814Z,7.62
2023-02-24T03:02:57.380Z,7.62
2023-02-24T03:05:33.913Z,7.67
2023-02-24T03:08:04.764Z,7.78
2023-02-24T03:10:34.532Z,7.80
2023-02-24T03:13:03.922Z,7.80
2023-02-24T03:15:33.105Z,7.87
2023-02-24T03:18:10.305Z,7.95
2023-02-24T03:20:46.268Z,8.03
2023-02-24T03:23:18.772Z,8.00
2023-02-24T03:25:55.160Z,8.06
2023-02-24T03:28:38.296Z,8.12
2023-02-24T03:31:10.979Z,7.97
2023-02-24T03:34:16.752Z,7.98
2023-02-24T03:36:43.731Z,7.92
2023-02-24T03:39:12.131Z,7.83
2023-02-24T03:41:54.107Z,7.75
2023-02-24T03:44:23.406Z,7.85
2023-02-24T03:46:49.791Z,7.83
2023-02-24T03:49:16.716Z,7.81
2023-02-24T03:52:08.870Z,7.75
2023-02-24T03:54:55.920Z,7.76
2023-02-24T03:57:25.246Z,7.82
2023-02-24T04:00:25.762Z,7.76
2023-02-24T04:03:03.414Z,7.82
2023-02-24T04:05:32.650Z,7.91
2023-02-24T04:08:08.929Z,7.95
2023-02-24T04:10:52.540Z,7.93
2023-02-24T04:13:28.430Z,7.75
2023-02-24T04:15:59.739Z,7.51
2023-02-24T04:18:28.720Z,7.77
2023-02-24T04:21:00.403Z,7.67
2023-02-24T04:23:30.131Z,7.61
2023-02-24T04:25:57.052Z,7.55
2023-02-24T04:28:24.718Z,7.45
2023-02-24T04:30:54.246Z,7.68
2023-02-24T04:33:21.171Z,7.91
2023-02-24T04:35:50.434Z,7.89
2023-02-24T04:38:17.836Z,7.98
2023-02-24T04:40:44.223Z,7.85
2023-02-24T04:43:11.077Z,7.83
2023-02-24T04:45:40.068Z,7.90
2023-02-24T04:48:12.713Z,7.92
2023-02-24T04:50:42.986Z,7.89
2023-02-24T04:53:17.339Z,7.97
2023-02-24T04:55:48.623Z,8.00
2023-02-24T04:58:21.114Z,7.92
2023-02-24T05:00:52.396Z,7.69
2023-02-24T05:03:19.996Z,7.78
2023-02-24T05:05:57.210Z,7.81
2023-02-24T05:08:25.249Z,8.04
2023-02-24T05:10:52.825Z,7.88
2023-02-24T05:13:27.170Z,7.79
2023-02-24T05:15:58.826Z,7.88
2023-02-24T05:18:25.823Z,7.71
2023-02-24T05:21:13.351Z,7.61
2023-02-24T05:23:45.963Z,7.37
2023-02-24T05:26:16.570Z,7.65
2023-02-24T05:28:44.709Z,7.57
2023-02-24T05:31:17.817Z,7.65
2023-02-24T05:33:46.198Z,7.56
2023-02-24T05:36:17.381Z,7.55
2023-02-24T05:38:45.202Z,7.55
2023-02-24T05:41:20.060Z,7.59
2023-02-24T05:43:52.569Z,7.44
2023-02-24T05:46:29.020Z,7.60
2023-02-24T05:48:58.166Z,7.65
2023-02-24T05:51:25.676Z,7.75
2023-02-24T05:53:56.136Z,7.74
2023-02-24T05:56:23.427Z,7.70
2023-02-24T05:59:01.786Z,7.80
2023-02-24T06:01:34.945Z,7.77
2023-02-24T06:04:06.582Z,7.82
2023-02-24T06:06:40.733Z,7.85
2023-02-24T06:09:12.744Z,7.85
2023-02-24T06:11:45.151Z,7.64
2023-02-24T06:14:12.775Z,7.71
2023-02-24T06:16:41.180Z,7.73
2023-02-24T06:19:09.828Z,7.89
2023-02-24T06:21:41.444Z,7.83
2023-02-24T06:24:18.486Z,7.66
2023-02-24T06:26:45.850Z,7.83
2023-02-24T06:29:16.967Z,7.73
2023-02-24T06:31:44.185Z,7.73
2023-02-24T06:34:13.101Z,7.62
2023-02-24T06:36:39.966Z,7.72
2023-02-24T06:39:09.400Z,7.63
2023-02-24T06:41:37.956Z,7.77
2023-02-24T06:44:04.715Z,7.69
2023-02-24T06:46:31.476Z,7.52
2023-02-24T06:49:01.033Z,7.45
2023-02-24T06:51:30.386Z,7.45
2023-02-24T06:53:59.313Z,7.66
2023-02-24T06:56:26.679Z,7.72
2023-02-24T06:58:59.016Z,7.65
2023-02-24T07:01:28.736Z,7.53
2023-02-24T07:04:12.892Z,7.47
2023-02-24T07:06:41.200Z,7.62
2023-02-24T07:09:13.169Z,7.55
2023-02-24T07:11:46.411Z,7.53
2023-02-24T07:14:13.402Z,7.49
2023-02-24T07:16:45.662Z,7.40
2023-02-24T07:19:15.987Z,7.45
2023-02-24T07:21:46.692Z,7.46
2023-02-24T07:24:20.165Z,7.71
2023-02-24T07:26:51.689Z,7.66
2023-02-24T07:29:18.607Z,7.51
2023-02-24T07:31:45.594Z,7.65
2023-02-24T07:34:15.173Z,7.31
2023-02-24T07:36:49.313Z,7.38
2023-02-24T07:39:16.569Z,7.44
2023-02-24T07:41:49.349Z,7.30
2023-02-24T07:44:20.480Z,7.40
2023-02-24T07:46:49.225Z,7.51
2023-02-24T07:49:19.702Z,7.41
2023-02-24T07:51:52.634Z,7.31
2023-02-24T07:54:21.222Z,7.22
2023-02-24T07:56:56.285Z,7.34
2023-02-24T07:59:30.473Z,7.04
2023-02-24T08:01:57.328Z,7.26
2023-02-24T08:04:26.774Z,7.17
2023-02-24T08:06:56.687Z,7.10
2023-02-24T08:09:44.235Z,7.16
2023-02-24T08:12:18.085Z,7.13
2023-02-24T08:14:50.757Z,7.29
2023-02-24T08:17:26.360Z,7.41
2023-02-24T08:20:15.561Z,7.34
2023-02-24T08:22:52.174Z,7.14
2023-02-24T08:25:22.638Z,7.27
2023-02-24T08:28:06.723Z,6.88
2023-02-24T08:30:55.577Z,6.84
2023-02-24T08:33:23.114Z,7.21
2023-02-24T08:36:00.824Z,7.24
2023-02-24T08:38:39.527Z,7.15
2023-02-24T08:41:11.030Z,7.12
2023-02-24T08:43:39.183Z,7.23
2023-02-24T08:46:18.369Z,7.34
2023-02-24T08:48:56.665Z,7.33
2023-02-24T08:51:34.841Z,7.36
2023-02-24T08:54:11.730Z,7.33
2023-02-24T08:56:43.262Z,7.39
2023-02-24T08:59:28.984Z,7.44
2023-02-24T09:02:17.239Z,7.53
2023-02-24T09:04:46.923Z,7.37
2023-02-24T09:07:18.724Z,7.26
2023-02-24T09:09:45.345Z,7.33
2023-02-24T09:12:22.187Z,7.39
2023-02-24T09:14:57.373Z,7.39
2023-02-24T09:17:40.085Z,7.60
2023-02-24T09:20:27.261Z,7.62
2023-02-24T09:23:03.113Z,7.67
2023-02-24T09:25:41.030Z,7.69
2023-02-24T09:28:19.282Z,7.63
2023-02-24T09:30:53.667Z,7.74
2023-02-24T09:33:55.775Z,7.77
2023-02-24T09:36:30.473Z,7.77
2023-02-24T09:39:01.874Z,7.78
2023-02-24T09:41:54.019Z,7.71
2023-02-24T09:44:35.440Z,7.81
2023-02-24T09:47:17.268Z,7.67
2023-02-24T09:49:56.309Z,7.76
2023-02-24T09:52:39.587Z,7.71
2023-02-24T09:55:28.255Z,7.81
2023-02-24T09:58:16.931Z,7.88
2023-02-24T10:01:00.513Z,7.99
2023-02-24T10:03:47.912Z,8.06
2023-02-24T10:06:35.389Z,8.00
2023-02-24T10:09:16.222Z,7.96
2023-02-24T10:11:53.601Z,8.19
2023-02-24T10:14:27.451Z,8.01
2023-02-24T10:17:14.950Z,8.11
2023-02-24T10:19:41.866Z,7.85
2023-02-24T10:22:27.339Z,7.89
2023-02-24T10:25:21.128Z,7.82
2023-02-24T10:28:08.027Z,8.11
2023-02-24T10:30:41.901Z,7.98
2023-02-24T10:33:18.785Z,8.03
2023-02-24T10:35:45.452Z,8.00
2023-02-24T10:38:12.347Z,8.13
2023-02-24T10:40:56.778Z,8.14
2023-02-24T10:43:33.192Z,8.14
2023-02-24T10:46:06.894Z,8.10
2023-02-24T10:48:41.851Z,8.09
2023-02-24T10:51:20.382Z,8.16
2023-02-24T10:54:09.264Z,8.17
2023-02-24T10:56:55.333Z,8.11
2023-02-24T10:59:24.524Z,8.21
2023-02-24T11:01:59.957Z,8.14
2023-02-24T11:04:32.342Z,7.84
2023-02-24T11:07:25.211Z,8.02
2023-02-24T11:10:13.739Z,8.27
2023-02-24T11:13:10.014Z,8.10
2023-02-24T11:16:15.793Z,7.83
2023-02-24T11:18:46.928Z,7.93
2023-02-24T11:21:14.414Z,7.96
2023-02-24T11:23:49.375Z,8.00
2023-02-24T11:26:18.741Z,8.17
2023-02-24T11:29:12.057Z,8.26
2023-02-24T11:32:00.424Z,8.40
2023-02-24T11:34:29.865Z,8.53
2023-02-24T11:37:24.951Z,8.46
2023-02-24T11:40:18.889Z,8.46
2023-02-24T11:42:52.477Z,8.52
2023-02-24T11:45:41.358Z,8.43
2023-02-24T11:48:21.312Z,8.67
2023-02-24T11:50:55.178Z,8.48
2023-02-24T11:53:45.335Z,8.57
2023-02-24T11:56:35.079Z,8.86
2023-02-24T11:59:20.218Z,8.92
2023-02-24T12:02:05.600Z,8.88
2023-02-24T12:04:40.082Z,8.84
2023-02-24T12:07:08.657Z,8.87
2023-02-24T12:09:48.409Z,8.89
2023-02-24T12:12:23.432Z,8.94
2023-02-24T12:14:56.398Z,9.19
2023-02-24T12:17:35.909Z,9.53
2023-02-24T12:20:06.400Z,9.63
2023-02-24T12:22:55.125Z,9.84
2023-02-24T12:25:27.359Z,9.83
2023-02-24T12:28:12.618Z,9.46
2023-02-24T12:30:51.253Z,9.62
2023-02-24T12:33:38.090Z,9.43
2023-02-24T12:36:20.037Z,9.53
2023-02-24T12:38:50.564Z,9.73
2023-02-24T12:41:38.104Z,10.15
2023-02-24T12:44:40.817Z,10.29
2023-02-24T12:47:13.439Z,10.32
2023-02-24T12:49:51.616Z,10.13
2023-02-24T12:52:33.804Z,10.34
2023-02-24T12:55:09.379Z,10.47
2023-02-24T12:57:44.699Z,10.48
2023-02-24T13:00:22.200Z,10.68
2023-02-24T13:03:07.451Z,10.64
2023-02-24T13:05:40.964Z,10.64
2023-02-24T13:08:21.694Z,10.51
2023-02-24T13:11:02.989Z,10.30
2023-02-24T13:13:38.295Z,10.43
2023-02-24T13:16:04.764Z,10.45
2023-02-24T13:18:34.902Z,10.48
2023-02-24T13:21:05.896Z,10.59
2023-02-24T13:23:33.427Z,10.54
2023-02-24T13:26:00.074Z,10.77
2023-02-24T13:28:36.362Z,10.80
2023-02-24T13:31:06.189Z,10.96
2023-02-24T13:33:35.129Z,11.09
2023-02-24T13:36:09.721Z,11.35
2023-02-24T13:38:40.154Z,11.54
2023-02-24T13:41:08.717Z,11.63
2023-02-24T13:43:35.998Z,11.59
2023-02-24T13:46:14.031Z,11.54
2023-02-24T13:48:47.280Z,11.35
2023-02-24T13:51:33.614Z,11.29
2023-02-24T13:54:53.937Z,10.92
2023-02-24T13:57:42.399Z,11.01
2023-02-24T14:00:15.284Z,10.77
2023-02-24T14:02:44.040Z,11.05
2023-02-24T14:05:18.219Z,10.76
2023-02-24T14:07:47.626Z,10.71
2023-02-24T14:10:20.204Z,10.22
2023-02-24T14:12:47.657Z,10.10
2023-02-24T14:15:20.230Z,10.46
2023-02-24T14:18:01.937Z,10.77
2023-02-24T14:20:32.692Z,10.47
2023-02-24T14:22:59.786Z,10.53
2023-02-24T14:25:34.864Z,10.65
2023-02-24T14:28:01.625Z,11.28
2023-02-24T14:30:39.757Z,11.00
2023-02-24T14:33:08.103Z,10.73
2023-02-24T14:35:37.101Z,10.69
2023-02-24T14:38:05.214Z,10.79
2023-02-24T14:40:32.775Z,10.72
2023-02-24T14:43:00.144Z,10.95
2023-02-24T14:45:28.695Z,11.17
2023-02-24T14:47:56.910Z,11.00
2023-02-24T14:50:30.545Z,11.37
2023-02-24T14:53:07.777Z,11.26
2023-02-24T14:55:40.486Z,11.28
2023-02-24T14:58:23.872Z,11.26
2023-02-24T15:01:02.058Z,11.09
2023-02-24T15:03:36.847Z,11.22
2023-02-24T15:06:13.432Z,11.48
2023-02-24T15:08:46.824Z,11.54
2023-02-24T15:11:16.162Z,11.46
2023-02-24T15:13:51.377Z,11.19
2023-02-24T15:16:40.307Z,11.31
2023-02-24T15:19:26.383Z,10.90
2023-02-24T15:21:53.497Z,11.22
2023-02-24T15:24:34.552Z,11.20
2023-02-24T15:27:16.082Z,11.22
2023-02-24T15:29:44.006Z,11.16
2023-02-24T15:32:19.128Z,11.37
2023-02-24T15:34:47.972Z,10.89
2023-02-24T15:37:17.019Z,11.01
2023-02-24T15:39:44.663Z,10.97
2023-02-24T15:42:31.699Z,10.37
2023-02-24T15:45:00.598Z,10.28
2023-02-24T15:47:30.319Z,10.19
2023-02-24T15:49:56.939Z,10.03
2023-02-24T15:52:26.116Z,10.03
2023-02-24T15:54:54.276Z,10.15
2023-02-24T15:57:21.174Z,10.24
2023-02-24T15:59:48.603Z,10.06
2023-02-24T16:02:20.799Z,10.04
2023-02-24T16:04:48.734Z,9.86
2023-02-24T16:07:30.744Z,10.06
2023-02-24T16:09:57.499Z,9.97
2023-02-24T16:12:28.751Z,9.80
2023-02-24T16:15:02.129Z,9.90
2023-02-24T16:17:32.688Z,10.04
2023-02-24T16:19:59.754Z,9.93
2023-02-24T16:22:26.222Z,9.98
2023-02-24T16:24:52.665Z,9.98
2023-02-24T16:27:20.944Z,9.88
2023-02-24T16:29:49.510Z,9.86
2023-02-24T16:32:16.163Z,9.95
2023-02-24T16:34:42.639Z,9.98
2023-02-24T16:37:17.925Z,10.03
2023-02-24T16:39:44.666Z,10.33
2023-02-24T16:42:11.090Z,10.09
2023-02-24T16:44:37.690Z,9.58
2023-02-24T16:47:06.555Z,9.46
2023-02-24T16:49:33.302Z,9.51
2023-02-24T16:52:00.026Z,9.38
2023-02-24T16:54:29.142Z,9.28
2023-02-24T16:56:56.562Z,9.38
2023-02-24T16:59:23.101Z,9.49
2023-02-24T17:01:49.563Z,9.36
2023-02-24T17:04:15.979Z,9.42
2023-02-24T17:06:42.448Z,9.36
2023-02-24T17:09:08.913Z,9.38
2023-02-24T17:11:35.347Z,9.28
2023-02-24T17:14:01.726Z,9.38
2023-02-24T17:16:29.837Z,9.29
2023-02-24T17:18:56.284Z,9.27
2023-02-24T17:21:23.109Z,9.51
2023-02-24T17:23:51.453Z,9.33
2023-02-24T17:26:17.867Z,9.10
2023-02-24T17:28:44.376Z,9.19
2023-02-24T17:31:10.919Z,9.35
2023-02-24T17:33:37.425Z,9.23
2023-02-24T17:36:04.097Z,9.56
2023-02-24T17:38:30.517Z,9.70
2023-02-24T17:40:57.673Z,9.47
2023-02-24T17:43:24.105Z,9.59
2023-02-24T17:45:51.767Z,9.42
2023-02-24T17:48:18.544Z,9.26
2023-02-24T17:50:47.590Z,9.08
2023-02-24T17:53:14.394Z,9.11
2023-02-24T17:55:55.775Z,9.25
2023-02-24T17:58:26.257Z,9.03
2023-02-24T18:00:52.645Z,9.34
2023-02-24T18:03:20.038Z,9.34
2023-02-24T18:05:46.571Z,9.05
2023-02-24T18:08:14.449Z,8.93
2023-02-24T18:10:40.984Z,9.09
2023-02-24T18:13:07.621Z,9.00
2023-02-24T18:15:34.019Z,8.80
2023-02-24T18:18:00.587Z,8.99
2023-02-24T18:20:27.366Z,9.03
2023-02-24T18:22:53.844Z,8.93
2023-02-24T18:25:20.251Z,8.95
2023-02-24T18:27:46.636Z,9.00
2023-02-24T18:30:17.965Z,8.91
2023-02-24T18:32:44.868Z,9.06
2023-02-24T18:35:12.935Z,9.04
2023-02-24T18:37:39.308Z,8.92
2023-02-24T18:40:06.480Z,9.07
2023-02-24T18:42:33.135Z,8.92
2023-02-24T18:44:59.910Z,9.01
2023-02-24T18:47:26.322Z,9.16
2023-02-24T18:49:52.708Z,9.23
2023-02-24T18:52:19.105Z,8.95
2023-02-24T18:54:45.687Z,8.93
2023-02-24T18:57:12.359Z,9.07
2023-02-24T18:59:38.738Z,8.93
2023-02-24T19:02:05.265Z,8.95
2023-02-24T19:04:31.701Z,9.09
2023-02-24T19:06:58.109Z,9.15
2023-02-24T19:09:24.678Z,8.88
2023-02-24T19:11:52.148Z,8.88
2023-02-24T19:14:18.657Z,8.96
2023-02-24T19:16:45.267Z,8.85
2023-02-24T19:19:16.973Z,9.04
2023-02-24T19:21:49.409Z,9.05
2023-02-24T19:24:17.528Z,8.85
2023-02-24T19:26:45.832Z,8.73
2023-02-24T19:29:14.600Z,8.71
2023-02-24T19:31:41.493Z,8.70
2023-02-24T19:34:11.507Z,8.62
2023-02-24T19:36:38.451Z,8.85
2023-02-24T19:39:05.846Z,8.90
2023-02-24T19:41:33.037Z,8.99
2023-02-24T19:44:02.820Z,8.90
2023-02-24T19:46:33.020Z,8.85
2023-02-24T19:49:02.727Z,8.90
2023-02-24T19:51:30.003Z,8.79
2023-02-24T19:53:58.997Z,8.87
2023-02-24T19:56:27.996Z,8.76
2023-02-24T19:58:55.958Z,8.79
2023-02-24T20:01:23.065Z,8.84
2023-02-24T20:03:50.368Z,8.61
2023-02-24T20:06:24.109Z,8.60
2023-02-24T20:08:50.692Z,8.85
2023-02-24T20:11:18.688Z,8.83
2023-02-24T20:13:45.603Z,8.87
2023-02-24T20:16:17.555Z,8.61
2023-02-24T20:18:44.704Z,8.67
2023-02-24T20:21:12.624Z,8.66
2023-02-24T20:23:43.583Z,8.80
2023-02-24T20:26:11.967Z,8.60
2023-02-24T20:28:38.374Z,8.48
2023-02-24T20:31:13.259Z,8.35
2023-02-24T20:33:40.843Z,8.46
2023-02-24T20:36:12.424Z,8.46
2023-02-24T20:38:39.300Z,8.51
2023-02-24T20:41:06.314Z,8.38
2023-02-24T20:43:33.165Z,8.58
2023-02-24T20:46:00.217Z,8.36
2023-02-24T20:48:26.655Z,8.62
2023-02-24T20:50:55.383Z,8.79
2023-02-24T20:53:21.951Z,8.41
2023-02-24T20:55:48.449Z,8.53
2023-02-24T20:58:14.971Z,8.59
2023-02-24T21:00:41.472Z,8.32
2023-02-24T21:03:11.973Z,8.37
2023-02-24T21:05:39.106Z,8.31
2023-02-24T21:08:05.930Z,8.25
2023-02-24T21:10:32.885Z,8.42
2023-02-24T21:12:59.705Z,8.27
2023-02-24T21:15:26.143Z,8.19
2023-02-24T21:17:52.810Z,8.38
2023-02-24T21:20:19.602Z,8.25
2023-02-24T21:22:46.110Z,8.32
2023-02-24T21:25:13.688Z,8.35
2023-02-24T21:27:40.172Z,8.34
2023-02-24T21:30:07.665Z,8.32
2023-02-24T21:32:34.445Z,8.43
2023-02-24T21:35:02.086Z,8.13
2023-02-24T21:37:28.852Z,8.15
2023-02-24T21:39:55.270Z,8.35
2023-02-24T21:42:23.461Z,8.37
2023-02-24T21:44:50.991Z,8.42
2023-02-24T21:47:21.868Z,8.54
2023-02-24T21:49:48.282Z,8.40
2023-02-24T21:52:14.682Z,8.40
2023-02-24T21:54:42.230Z,8.39
2023-02-24T21:57:08.676Z,8.48
2023-02-24T21:59:35.237Z,8.67
2023-02-24T22:02:01.754Z,8.21
2023-02-24T22:04:28.229Z,8.17
2023-02-24T22:06:54.624Z,8.32
2023-02-24T22:09:21.097Z,8.40
2023-02-24T22:11:48.501Z,8.42
2023-02-24T22:14:15.448Z,8.55
2023-02-24T22:16:42.622Z,8.45
2023-02-24T22:19:09.234Z,8.21
2023-02-24T22:21:35.904Z,8.67
2023-02-24T22:24:03.472Z,8.60
2023-02-24T22:26:31.840Z,8.43
2023-02-24T22:28:59.581Z,8.30
2023-02-24T22:31:28.200Z,8.73
2023-02-24T22:33:55.086Z,8.64
2023-02-24T22:36:27.839Z,8.68
2023-02-24T22:38:55.406Z,8.46
2023-02-24T22:41:24.983Z,8.84
2023-02-24T22:43:51.740Z,8.84
2023-02-24T22:46:21.587Z,8.88
2023-02-24T22:48:48.339Z,8.95
2023-02-24T22:51:15.087Z,9.06
2023-02-24T22:53:43.440Z,8.82
2023-02-24T22:56:14.900Z,8.98
2023-02-24T22:58:41.739Z,8.93
2023-02-24T23:01:12.973Z,8.88
2023-02-24T23:03:40.349Z,8.99
2023-02-24T23:06:13.428Z,8.80
2023-02-24T23:08:42.104Z,8.52
2023-02-24T23:11:20.798Z,8.77
2023-02-24T23:13:48.624Z,8.69
2023-02-24T23:16:18.622Z,8.78
2023-02-24T23:18:50.704Z,8.52
2023-02-24T23:21:31.461Z,8.80
2023-02-24T23:23:57.983Z,8.51
2023-02-24T23:26:35.720Z,8.68
2023-02-24T23:29:02.670Z,8.70
2023-02-24T23:31:29.225Z,8.70
2023-02-24T23:33:56.070Z,8.72
2023-02-24T23:36:23.252Z,8.84
2023-02-24T23:38:49.859Z,8.70
2023-02-24T23:41:16.461Z,8.82
2023-02-24T23:43:42.947Z,9.07
2023-02-24T23:46:11.909Z,8.95
2023-02-24T23:48:38.515Z,8.85
2023-02-24T23:51:07.069Z,8.93
2023-02-24T23:53:41.406Z,8.72
2023-02-24T23:56:09.938Z,8.87
2023-02-24T23:58:37.365Z,8.86
